createdAt,value
2022-12-04T00:02:05.120Z,77.79
2022-12-04T00:04:53.879Z,77.78
2022-12-04T00:07:36.228Z,77.16
2022-12-04T00:10:24.881Z,77.71
2022-12-04T00:13:07.519Z,77.54
2022-12-04T00:15:56.934Z,77.54
2022-12-04T00:18:45.826Z,77.24
2022-12-04T00:21:34.844Z,77.43
2022-12-04T00:24:17.153Z,77.41
2022-12-04T00:27:05.872Z,78.63
2022-12-04T00:29:50.915Z,78.24
2022-12-04T00:32:39.827Z,77.64
2022-12-04T00:35:22.142Z,76.88
2022-12-04T00:38:10.834Z,76.30
2022-12-04T00:41:02.094Z,76.68
2022-12-04T00:43:50.835Z,77.56
2022-12-04T00:46:33.239Z,77.53
2022-12-04T00:49:21.831Z,76.83
2022-12-04T00:52:04.132Z,78.35
2022-12-04T00:54:52.883Z,78.14
2022-12-04T00:57:35.114Z,77.76
2022-12-04T01:00:23.862Z,77.42
2022-12-04T01:03:06.229Z,77.24
2022-12-04T01:05:54.854Z,76.86
2022-12-04T01:08:43.880Z,77.33
2022-12-04T01:11:34.814Z,77.98
2022-12-04T01:14:23.879Z,78.96
2022-12-04T01:17:12.151Z,78.56
2022-12-04T01:19:54.114Z,78.28
2022-12-04T01:22:42.834Z,78.20
2022-12-04T01:25:25.269Z,78.18
2022-12-04T01:28:13.881Z,78.11
2022-12-04T01:31:14.302Z,77.56
2022-12-04T01:34:02.818Z,77.32
2022-12-04T01:36:51.807Z,77.79
2022-12-04T01:39:40.842Z,79.05
2022-12-04T01:42:30.827Z,79.03
2022-12-04T01:45:51.897Z,78.51
2022-12-04T01:48:54.131Z,78.29
2022-12-04T01:51:47.815Z,77.44
2022-12-04T01:54:44.869Z,78.12
2022-12-04T01:57:37.501Z,78.04
2022-12-04T02:00:23.876Z,78.31
2022-12-04T02:03:12.929Z,78.40
2022-12-04T02:05:55.109Z,78.28
2022-12-04T02:08:44.903Z,79.51
2022-12-04T02:12:00.103Z,79.38
2022-12-04T02:15:06.852Z,78.80
2022-12-04T02:18:20.801Z,78.91
2022-12-04T02:22:07.711Z,78.43
2022-12-04T02:25:15.868Z,78.81
2022-12-04T02:28:30.429Z,80.07
2022-12-04T02:31:24.847Z,78.87
2022-12-04T02:34:15.146Z,78.80
2022-12-04T02:37:17.839Z,78.67
2022-12-04T02:40:05.167Z,78.56
2022-12-04T02:43:00.860Z,78.32
2022-12-04T02:45:51.363Z,78.67
2022-12-04T02:48:43.850Z,78.68
2022-12-04T02:51:30.089Z,77.84
2022-12-04T02:54:32.801Z,77.46
2022-12-04T02:57:21.562Z,77.24
2022-12-04T03:00:15.760Z,78.32
2022-12-04T03:03:15.790Z,77.94
2022-12-04T03:06:18.760Z,77.83
2022-12-04T03:09:39.709Z,77.69
2022-12-04T03:13:00.855Z,76.67
2022-12-04T03:15:51.772Z,76.24
2022-12-04T03:18:54.803Z,75.51
2022-12-04T03:21:46.745Z,74.13
2022-12-04T03:24:52.884Z,73.58
2022-12-04T03:27:59.149Z,72.07
2022-12-04T03:30:49.871Z,70.48
2022-12-04T03:33:46.752Z,69.52
2022-12-04T03:37:13.801Z,66.71
2022-12-04T03:40:10.099Z,63.98
2022-12-04T03:43:19.801Z,64.65
2022-12-04T03:46:34.293Z,62.35
2022-12-04T03:50:00.719Z,60.28
2022-12-04T03:53:16.807Z,60.93
2022-12-04T03:56:34.134Z,58.52
2022-12-04T03:59:56.268Z,57.77
2022-12-04T04:02:46.155Z,57.79
2022-12-04T04:05:36.802Z,55.96
2022-12-04T04:08:28.006Z,57.42
2022-12-04T04:11:25.723Z,54.53
2022-12-04T04:14:44.846Z,53.83
2022-12-04T04:18:02.657Z,53.27
2022-12-04T04:21:24.786Z,51.30
2022-12-04T04:24:16.666Z,50.30
2022-12-04T04:27:06.696Z,50.50
2022-12-04T04:29:52.742Z,50.01
2022-12-04T04:32:51.701Z,49.22
2022-12-04T04:35:46.117Z,49.31
2022-12-04T04:38:34.788Z,49.69
2022-12-04T04:41:26.840Z,49.20
2022-12-04T04:44:35.884Z,47.61
2022-12-04T04:47:32.833Z,48.30
2022-12-04T04:50:17.603Z,47.21
2022-12-04T04:53:13.827Z,46.94
2022-12-04T04:55:56.256Z,48.52
2022-12-04T04:58:44.796Z,48.39
2022-12-04T05:01:30.124Z,47.31
2022-12-04T05:04:19.822Z,46.71
2022-12-04T05:07:01.930Z,47.82
2022-12-04T05:09:50.800Z,47.44
2022-12-04T05:12:33.117Z,46.37
2022-12-04T05:15:22.852Z,45.82
2022-12-04T05:18:05.137Z,46.63
2022-12-04T05:20:54.722Z,45.39
2022-12-04T05:23:43.743Z,46.68
2022-12-04T05:26:26.589Z,45.13
2022-12-04T05:29:15.713Z,44.56
2022-12-04T05:32:04.738Z,47.03
2022-12-04T05:34:49.839Z,45.28
2022-12-04T05:37:39.894Z,47.36
2022-12-04T05:40:29.052Z,43.88
2022-12-04T05:43:11.826Z,44.73
2022-12-04T05:45:54.269Z,43.42
2022-12-04T05:48:42.704Z,42.78
2022-12-04T05:51:31.739Z,44.30
2022-12-04T05:54:14.193Z,41.82
2022-12-04T05:57:03.797Z,42.78
2022-12-04T05:59:52.817Z,43.91
2022-12-04T06:02:35.859Z,41.95
2022-12-04T06:05:24.695Z,42.13
2022-12-04T06:08:13.263Z,42.57
2022-12-04T06:10:54.787Z,42.00
2022-12-04T06:13:36.978Z,41.92
2022-12-04T06:16:34.867Z,42.38
2022-12-04T06:19:33.682Z,41.54
2022-12-04T06:22:15.811Z,43.18
2022-12-04T06:25:04.691Z,41.59
2022-12-04T06:27:47.085Z,40.91
2022-12-04T06:30:36.085Z,41.84
2022-12-04T06:33:18.128Z,41.67
2022-12-04T06:36:08.698Z,42.07
2022-12-04T06:38:52.049Z,42.90
2022-12-04T06:41:40.857Z,42.39
2022-12-04T06:44:24.162Z,42.22
2022-12-04T06:47:13.789Z,41.14
2022-12-04T06:50:05.749Z,41.16
2022-12-04T06:52:54.776Z,42.46
2022-12-04T06:55:37.105Z,41.63
2022-12-04T06:58:25.732Z,41.50
2022-12-04T07:01:08.119Z,41.70
2022-12-04T07:03:56.779Z,40.95
2022-12-04T07:06:45.216Z,41.21
2022-12-04T07:09:33.724Z,39.92
2022-12-04T07:12:22.823Z,40.66
2022-12-04T07:15:18.681Z,40.53
2022-12-04T07:18:14.744Z,41.76
2022-12-04T07:21:03.827Z,41.75
2022-12-04T07:23:55.880Z,41.72
2022-12-04T07:26:38.035Z,42.15
2022-12-04T07:29:26.770Z,41.52
2022-12-04T07:32:15.810Z,42.27
2022-12-04T07:34:58.072Z,40.17
2022-12-04T07:37:46.731Z,41.84
2022-12-04T07:40:35.818Z,41.80
2022-12-04T07:43:24.730Z,42.80
2022-12-04T07:46:12.197Z,41.33
2022-12-04T07:49:00.797Z,40.61
2022-12-04T07:51:43.168Z,42.32
2022-12-04T07:54:31.824Z,40.75
2022-12-04T07:57:14.128Z,40.78
2022-12-04T08:00:02.751Z,40.74
2022-12-04T08:02:53.734Z,41.31
2022-12-04T08:05:36.081Z,39.80
2022-12-04T08:08:24.765Z,41.27
2022-12-04T08:11:10.143Z,40.12
2022-12-04T08:13:59.740Z,40.97
2022-12-04T08:16:52.730Z,41.64
2022-12-04T08:19:41.154Z,41.11
2022-12-04T08:22:25.481Z,41.14
2022-12-04T08:25:08.271Z,40.62
2022-12-04T08:27:57.817Z,41.17
2022-12-04T08:30:46.200Z,41.51
2022-12-04T08:33:28.857Z,40.81
2022-12-04T08:36:20.748Z,40.50
2022-12-04T08:39:03.808Z,41.75
2022-12-04T08:41:57.000Z,40.81
2022-12-04T08:44:39.066Z,41.07
2022-12-04T08:47:27.833Z,40.88
2022-12-04T08:50:11.132Z,41.41
2022-12-04T08:52:59.668Z,40.13
2022-12-04T08:55:49.803Z,40.47
2022-12-04T08:58:39.321Z,40.95
2022-12-04T09:01:22.787Z,40.72
2022-12-04T09:04:12.837Z,40.31
2022-12-04T09:07:01.704Z,40.73
2022-12-04T09:09:51.098Z,41.59
2022-12-04T09:12:32.676Z,42.25
2022-12-04T09:15:15.308Z,41.86
2022-12-04T09:18:03.772Z,41.36
2022-12-04T09:20:52.700Z,42.20
2022-12-04T09:23:42.837Z,42.55
2022-12-04T09:26:29.416Z,43.55
2022-12-04T09:29:20.788Z,45.24
2022-12-04T09:32:09.768Z,44.27
2022-12-04T09:34:52.983Z,43.58
2022-12-04T09:37:35.823Z,43.46
2022-12-04T09:40:37.162Z,44.07
2022-12-04T09:43:37.700Z,44.50
2022-12-04T09:46:51.387Z,44.71
2022-12-04T09:49:42.363Z,43.39
2022-12-04T09:52:51.808Z,42.37
2022-12-04T09:56:00.142Z,42.73
2022-12-04T09:59:07.843Z,42.54
2022-12-04T10:02:05.336Z,42.18
2022-12-04T10:04:53.719Z,41.70
2022-12-04T10:08:05.766Z,42.63
2022-12-04T10:11:21.226Z,43.68
2022-12-04T10:14:11.745Z,43.84
2022-12-04T10:17:36.313Z,43.09
2022-12-04T10:20:42.830Z,43.95
2022-12-04T10:23:53.170Z,44.63
2022-12-04T10:26:47.779Z,44.41
2022-12-04T10:29:39.280Z,43.86
2022-12-04T10:32:48.733Z,43.50
2022-12-04T10:35:44.677Z,43.08
2022-12-04T10:38:51.448Z,44.61
2022-12-04T10:41:50.815Z,45.02
2022-12-04T10:44:39.097Z,45.06
2022-12-04T10:47:21.735Z,45.32
2022-12-04T10:50:14.724Z,46.08
2022-12-04T10:53:08.196Z,46.81
2022-12-04T10:55:52.944Z,45.97
2022-12-04T10:58:41.764Z,47.99
2022-12-04T11:01:24.806Z,47.68
2022-12-04T11:04:44.709Z,47.41
2022-12-04T11:07:37.229Z,49.08
2022-12-04T11:11:05.701Z,49.24
2022-12-04T11:13:54.772Z,50.74
2022-12-04T11:16:41.323Z,52.36
2022-12-04T11:19:33.704Z,52.76
2022-12-04T11:22:24.230Z,54.39
2022-12-04T11:25:12.674Z,54.80
2022-12-04T11:28:01.229Z,55.28
2022-12-04T11:30:54.796Z,55.92
2022-12-04T11:34:02.130Z,57.59
2022-12-04T11:37:11.747Z,57.39
2022-12-04T11:40:31.683Z,58.05
2022-12-04T11:43:38.825Z,58.56
2022-12-04T11:46:48.861Z,58.50
2022-12-04T11:50:04.680Z,59.28
2022-12-04T11:53:19.809Z,59.61
2022-12-04T11:56:39.827Z,59.53
2022-12-04T11:59:51.096Z,60.03
2022-12-04T12:03:26.877Z,60.08
2022-12-04T12:06:43.135Z,60.46
2022-12-04T12:10:04.784Z,60.93
2022-12-04T12:13:32.841Z,61.30
2022-12-04T12:16:56.803Z,60.99
2022-12-04T12:20:14.971Z,60.84
2022-12-04T12:23:37.665Z,60.69
2022-12-04T12:26:27.867Z,61.64
2022-12-04T12:29:11.322Z,62.54
2022-12-04T12:32:01.827Z,63.17
2022-12-04T12:34:48.064Z,63.48
2022-12-04T12:37:51.880Z,63.07
2022-12-04T12:40:49.063Z,62.99
2022-12-04T12:43:43.790Z,63.07
2022-12-04T12:46:50.925Z,63.66
2022-12-04T12:50:03.746Z,64.30
2022-12-04T12:53:23.080Z,64.57
2022-12-04T12:56:14.792Z,64.45
2022-12-04T12:59:04.160Z,64.99
2022-12-04T13:02:06.813Z,65.18
2022-12-04T13:04:58.711Z,64.92
2022-12-04T13:08:12.210Z,65.12
2022-12-04T13:11:18.678Z,66.06
2022-12-04T13:14:04.359Z,66.46
2022-12-04T13:17:01.724Z,67.16
2022-12-04T13:20:09.870Z,67.08
2022-12-04T13:23:05.768Z,67.38
2022-12-04T13:26:20.655Z,67.30
2022-12-04T13:29:29.806Z,66.97
2022-12-04T13:32:36.697Z,66.99
2022-12-04T13:35:43.182Z,66.46
2022-12-04T13:39:22.702Z,67.33
2022-12-04T13:42:15.007Z,67.00
2022-12-04T13:45:06.818Z,67.25
2022-12-04T13:48:08.652Z,67.74
2022-12-04T13:50:51.022Z,68.04
2022-12-04T13:53:42.732Z,68.21
2022-12-04T13:56:43.749Z,67.63
2022-12-04T13:59:29.137Z,68.12
2022-12-04T14:02:36.814Z,67.84
2022-12-04T14:05:29.509Z,67.69
2022-12-04T14:08:22.853Z,67.79
2022-12-04T14:11:20.064Z,67.75
2022-12-04T14:14:11.686Z,68.13
2022-12-04T14:17:01.783Z,68.08
2022-12-04T14:20:07.330Z,68.77
2022-12-04T14:22:50.719Z,68.82
2022-12-04T14:25:49.653Z,68.40
2022-12-04T14:28:41.992Z,67.94
2022-12-04T14:31:48.735Z,68.16
2022-12-04T14:34:39.869Z,68.34
2022-12-04T14:37:46.114Z,69.12
2022-12-04T14:40:41.793Z,69.07
2022-12-04T14:43:33.054Z,69.01
2022-12-04T14:46:47.739Z,69.29
2022-12-04T14:49:49.213Z,69.75
2022-12-04T14:52:51.736Z,69.78
2022-12-04T14:55:54.211Z,70.06
2022-12-04T14:58:45.648Z,70.14
2022-12-04T15:01:46.214Z,70.23
2022-12-04T15:04:43.812Z,69.79
2022-12-04T15:07:32.198Z,69.67
2022-12-04T15:10:47.781Z,69.58
2022-12-04T15:13:45.103Z,70.06
2022-12-04T15:16:33.813Z,70.85
2022-12-04T15:19:27.271Z,70.33
2022-12-04T15:22:29.891Z,68.68
2022-12-04T15:25:13.116Z,68.19
2022-12-04T15:28:10.790Z,68.68
2022-12-04T15:30:55.719Z,68.57
2022-12-04T15:33:46.053Z,68.98
2022-12-04T15:36:52.480Z,69.46
2022-12-04T15:39:44.804Z,69.40
2022-12-04T15:42:30.220Z,69.79
2022-12-04T15:45:20.865Z,70.07
2022-12-04T15:48:06.292Z,70.06
2022-12-04T15:51:04.640Z,70.20
2022-12-04T15:53:52.412Z,70.10
2022-12-04T15:56:41.798Z,70.30
2022-12-04T15:59:26.270Z,70.58
2022-12-04T16:02:35.767Z,71.30
2022-12-04T16:05:30.163Z,70.32
2022-12-04T16:08:39.655Z,71.47
2022-12-04T16:11:34.827Z,70.57
2022-12-04T16:14:26.104Z,70.96
2022-12-04T16:17:09.645Z,71.26
2022-12-04T16:19:59.086Z,71.70
2022-12-04T16:22:41.925Z,71.90
2022-12-04T16:25:24.091Z,71.34
2022-12-04T16:28:16.896Z,71.30
2022-12-04T16:30:59.749Z,71.03
2022-12-04T16:33:48.669Z,71.17
2022-12-04T16:36:40.604Z,71.26
2022-12-04T16:39:23.983Z,71.42
2022-12-04T16:42:13.293Z,71.24
2022-12-04T16:44:56.213Z,71.61
2022-12-04T16:47:53.257Z,71.63
2022-12-04T16:50:44.271Z,71.53
2022-12-04T16:53:28.746Z,72.27
2022-12-04T16:56:17.776Z,72.24
2022-12-04T16:59:00.120Z,72.51
2022-12-04T17:01:56.040Z,72.31
2022-12-04T17:04:38.333Z,72.22
2022-12-04T17:07:28.824Z,72.72
2022-12-04T17:10:22.002Z,73.14
2022-12-04T17:13:12.867Z,72.60
2022-12-04T17:15:55.175Z,72.62
2022-12-04T17:19:02.718Z,72.99
2022-12-04T17:22:11.006Z,72.84
2022-12-04T17:25:14.866Z,73.24
2022-12-04T17:28:24.633Z,73.42
2022-12-04T17:31:28.139Z,73.16
2022-12-04T17:34:36.782Z,73.59
2022-12-04T17:37:39.681Z,73.61
2022-12-04T17:40:48.653Z,74.18
2022-12-04T17:43:51.225Z,73.25
2022-12-04T17:47:00.836Z,73.93
2022-12-04T17:50:05.640Z,73.72
2022-12-04T17:53:14.716Z,73.47
2022-12-04T17:56:25.768Z,73.98
2022-12-04T17:59:28.088Z,74.15
2022-12-04T18:02:36.726Z,74.49
2022-12-04T18:05:39.131Z,74.66
2022-12-04T18:08:50.252Z,74.19
2022-12-04T18:11:57.291Z,74.15
2022-12-04T18:15:05.708Z,74.52
2022-12-04T18:18:08.252Z,74.88
2022-12-04T18:21:19.764Z,74.40
2022-12-04T18:24:23.097Z,74.56
2022-12-04T18:27:32.604Z,74.37
2022-12-04T18:30:35.107Z,74.70
2022-12-04T18:33:24.740Z,74.49
2022-12-04T18:36:10.283Z,74.50
2022-12-04T18:39:03.614Z,74.29
2022-12-04T18:41:52.781Z,74.37
2022-12-04T18:44:41.042Z,74.14
2022-12-04T18:47:22.653Z,74.22
2022-12-04T18:50:14.242Z,74.83
2022-12-04T18:53:00.910Z,74.01
2022-12-04T18:55:49.516Z,74.10
2022-12-04T18:58:31.746Z,73.66
2022-12-04T19:01:24.164Z,73.31
2022-12-04T19:04:10.770Z,73.64
2022-12-04T19:07:02.115Z,73.96
2022-12-04T19:12:45.942Z,74.59
2022-12-04T19:15:36.769Z,74.38
2022-12-04T19:18:19.516Z,74.82
2022-12-04T19:21:08.781Z,74.74
2022-12-04T19:23:54.301Z,74.90
2022-12-04T19:26:46.751Z,75.21
2022-12-04T19:29:29.113Z,74.96
2022-12-04T19:32:17.796Z,74.45
2022-12-04T19:35:06.764Z,74.51
2022-12-04T19:37:52.576Z,74.51
2022-12-04T19:40:41.701Z,74.49
2022-12-04T19:43:24.151Z,74.74
2022-12-04T19:46:15.792Z,75.16
2022-12-04T19:48:59.712Z,74.66
2022-12-04T19:51:48.688Z,75.07
2022-12-04T19:54:31.374Z,74.88
2022-12-04T19:57:22.734Z,75.04
2022-12-04T20:00:04.969Z,75.86
2022-12-04T20:02:56.877Z,75.50
2022-12-04T20:05:42.984Z,74.96
2022-12-04T20:08:31.688Z,75.44
2022-12-04T20:11:26.028Z,75.88
2022-12-04T20:14:15.769Z,75.46
2022-12-04T20:16:59.591Z,74.99
2022-12-04T20:19:49.201Z,75.57
2022-12-04T20:22:31.125Z,75.14
2022-12-04T20:25:19.608Z,74.76
2022-12-04T20:28:01.998Z,75.91
2022-12-04T20:30:50.759Z,75.33
2022-12-04T20:33:33.023Z,75.15
2022-12-04T20:36:22.681Z,75.44
2022-12-04T20:39:13.775Z,75.66
2022-12-04T20:42:02.647Z,75.44
2022-12-04T20:44:44.951Z,76.54
2022-12-04T20:47:27.682Z,76.12
2022-12-04T20:50:17.780Z,76.35
2022-12-04T20:52:59.957Z,75.50
2022-12-04T20:55:48.681Z,76.08
2022-12-04T20:58:30.984Z,76.13
2022-12-04T21:01:22.678Z,76.64
2022-12-04T21:04:15.010Z,76.57
2022-12-04T21:07:03.642Z,76.82
2022-12-04T21:09:52.615Z,76.14
2022-12-04T21:12:53.270Z,76.52
2022-12-04T21:15:59.602Z,75.70
2022-12-04T21:18:41.898Z,76.38
2022-12-04T21:21:32.043Z,76.47
2022-12-04T21:24:22.978Z,76.55
2022-12-04T21:27:05.690Z,76.41
2022-12-04T21:29:54.816Z,76.39
2022-12-04T21:32:36.992Z,76.46
2022-12-04T21:35:25.625Z,76.30
2022-12-04T21:38:08.021Z,75.98
2022-12-04T21:40:57.673Z,75.75
2022-12-04T21:43:40.990Z,76.90
2022-12-04T21:46:22.753Z,76.29
2022-12-04T21:49:05.350Z,76.37
2022-12-04T21:51:58.115Z,76.26
2022-12-04T21:54:40.920Z,76.18
2022-12-04T21:57:29.792Z,76.47
2022-12-04T22:00:12.432Z,76.36
2022-12-04T22:03:01.643Z,76.29
2022-12-04T22:05:44.704Z,76.86
2022-12-04T22:08:33.772Z,76.46
2022-12-04T22:11:18.939Z,76.75
2022-12-04T22:14:07.783Z,76.13
2022-12-04T22:16:53.066Z,76.03
2022-12-04T22:19:41.678Z,76.33
2022-12-04T22:22:24.035Z,75.78
2022-12-04T22:25:12.617Z,76.19
2022-12-04T22:28:01.602Z,75.93
2022-12-04T22:30:43.995Z,76.39
2022-12-04T22:33:32.653Z,76.08
2022-12-04T22:36:18.013Z,76.14
2022-12-04T22:39:15.720Z,75.97
2022-12-04T22:42:04.567Z,76.59
2022-12-04T22:44:47.167Z,76.57
2022-12-04T22:47:35.765Z,76.15
2022-12-04T22:50:19.033Z,75.81
2022-12-04T22:53:07.576Z,76.18
2022-12-04T22:55:49.963Z,75.86
2022-12-04T22:58:38.719Z,76.70
2022-12-04T23:01:24.055Z,75.80
2022-12-04T23:04:13.725Z,76.48
2022-12-04T23:06:56.037Z,76.21
2022-12-04T23:09:44.767Z,75.86
2022-12-04T23:12:28.651Z,74.96
2022-12-04T23:15:17.711Z,74.80
2022-12-04T23:17:59.936Z,75.72
2022-12-04T23:20:48.741Z,77.00
2022-12-04T23:23:30.980Z,76.91
2022-12-04T23:26:22.718Z,77.59
2022-12-04T23:29:23.399Z,77.11
2022-12-04T23:32:16.028Z,76.79
2022-12-04T23:34:58.071Z,76.84
2022-12-04T23:37:46.618Z,77.37
2022-12-04T23:40:28.938Z,77.06
2022-12-04T23:43:17.566Z,77.55
2022-12-04T23:45:59.935Z,77.71
2022-12-04T23:48:49.718Z,77.80
2022-12-04T23:51:32.933Z,77.76
2022-12-04T23:54:21.702Z,77.88
2022-12-04T23:57:10.628Z,77.44
2022-12-04T23:59:54.357Z,77.79
